Time;durP1;ratioP1;P1;durP2;ratioP2;P2;SDS_P1;SDS_P2;PMS_P1;PMS_P2;Temp;Humidity;BMP_temperature;BMP_pressure;BME280_temperature;BME280_humidity;BME280_pressure;Samples;Min_cycle;Max_cycle;Signal;HPM_P1;HPM_P2
2021/11/26 00:16:34;;;;;;;50.88;21.48;;;;;;;-0.02;100.00;98186.28;6241551;22;1428769;-85
2021/11/26 00:19:04;;;;;;;54.70;22.50;;;;;;;0.19;100.00;98206.69;6255107;22;20514;-85
2021/11/26 00:21:35;;;;;;;46.30;21.13;;;;;;;0.00;100.00;98179.00;6254957;22;20018;-85
2021/11/26 00:24:03;;;;;;;52.53;21.73;;;;;;;0.06;100.00;98183.78;6256433;22;20020;-85
2021/11/26 00:26:33;;;;;;;46.92;21.02;;;;;;;0.16;100.00;98189.91;6254981;22;20027;-85
2021/11/26 00:28:59;;;;;;;;;;;;;;;0.20;100.00;98189.63;6254779;22;20036;-84
2021/11/26 00:31:31;;;;;;;45.88;20.67;;;;;;;0.11;100.00;98172.66;6254566;22;19915;-85
2021/11/26 00:33:58;;;;;;;44.78;20.05;;;;;;;0.21;100.00;98188.66;6273494;22;20030;-84
2021/11/26 00:36:28;;;;;;;53.13;21.90;;;;;;;0.23;100.00;98184.84;6275186;22;20026;-84
2021/11/26 00:38:55;;;;;;;;;;;;;;;0.27;100.00;98177.38;6277978;22;20015;-84
2021/11/26 00:41:23;;;;;;;45.90;19.80;;;;;;;0.20;100.00;98171.78;6278057;23;19919;-84
2021/11/26 00:43:51;;;;;;;47.20;20.95;;;;;;;0.12;100.00;98167.16;6266373;23;20091;-84
2021/11/26 00:46:19;;;;;;;50.55;21.50;;;;;;;0.04;100.00;98153.66;6254497;22;20027;-84
2021/11/26 00:48:48;;;;;;;55.38;21.85;;;;;;;0.13;100.00;98168.81;6253797;22;20091;-84
2021/11/26 00:51:15;;;;;;;50.33;22.67;;;;;;;0.20;100.00;98174.44;6253579;22;20016;-84
2021/11/26 00:53:45;;;;;;;57.65;22.48;;;;;;;0.24;100.00;98180.34;6253628;22;20352;-84
2021/11/26 00:56:13;;;;;;;54.50;23.23;;;;;;;0.11;100.00;98151.25;6254790;22;20016;-84
2021/11/26 00:58:40;;;;;;;52.85;22.38;;;;;;;0.14;100.00;98156.31;6254762;22;20020;-84
2021/11/26 01:01:07;;;;;;;78.43;24.13;;;;;;;0.18;100.00;98165.72;6254946;22;20336;-84
2021/11/26 01:03:37;;;;;;;54.33;23.40;;;;;;;-0.01;100.00;98135.38;6255263;22;20026;-84
2021/11/26 01:06:06;;;;;;;58.50;24.23;;;;;;;0.02;100.00;98144.94;6254539;22;20039;-84
2021/11/26 01:08:33;;;;;;;52.60;23.67;;;;;;;0.04;100.00;98161.66;6255010;22;20016;-84
2021/11/26 01:11:00;;;;;;;55.15;23.45;;;;;;;0.09;100.00;98132.69;6254192;22;20019;-84
2021/11/26 01:13:27;;;;;;;51.10;22.23;;;;;;;0.22;100.00;98137.72;6251311;22;20016;-84
2021/11/26 01:15:55;;;;;;;59.40;24.45;;;;;;;0.22;100.00;98132.38;6248443;22;20012;-84
2021/11/26 01:18:23;;;;;;;56.10;24.73;;;;;;;0.12;100.00;98136.88;6248052;22;20058;-84
2021/11/26 01:20:50;;;;;;;54.80;22.65;;;;;;;0.10;100.00;98130.84;6248555;22;20016;-84
2021/11/26 01:23:24;;;;;;;58.22;22.70;;;;;;;0.23;100.00;98149.28;6247745;22;20017;-84
2021/11/26 01:25:54;;;;;;;57.15;23.02;;;;;;;0.26;100.00;98149.81;6248130;22;20398;-85
2021/11/26 01:28:21;;;;;;;50.40;22.52;;;;;;;0.17;100.00;98131.97;6247475;22;20020;-84
2021/11/26 01:30:49;;;;;;;52.10;23.38;;;;;;;0.29;100.00;98164.75;6247635;22;20027;-85
2021/11/26 01:33:18;;;;;;;54.00;21.83;;;;;;;0.14;100.00;98122.41;6247875;22;20027;-84
2021/11/26 01:35:52;;;;;;;54.03;22.58;;;;;;;0.15;100.00;98137.47;6247980;22;20017;-84
2021/11/26 01:38:22;;;;;;;56.60;23.30;;;;;;;0.14;100.00;98126.91;6247264;22;20020;-85
2021/11/26 01:40:50;;;;;;;48.53;21.80;;;;;;;0.23;100.00;98144.75;6247241;22;20016;-84
2021/11/26 01:43:20;;;;;;;56.72;22.40;;;;;;;0.11;100.00;98116.53;6247265;22;20019;-84
2021/11/26 01:45:54;;;;;;;51.58;22.50;;;;;;;0.24;100.00;98145.59;6247497;22;20066;-84
2021/11/26 01:48:22;;;;;;;50.72;22.75;;;;;;;0.05;100.00;98120.59;6247911;22;20013;-84
2021/11/26 01:50:51;;;;;;;49.97;22.67;;;;;;;0.24;100.00;98132.22;6247447;22;20016;-84
2021/11/26 01:53:18;;;;;;;57.35;22.02;;;;;;;0.25;100.00;98140.09;6247634;22;20016;-84
2021/11/26 01:55:46;;;;;;;47.10;22.15;;;;;;;0.28;100.00;98138.97;6246982;22;20091;-85
2021/11/26 01:58:13;;;;;;;48.47;20.40;;;;;;;0.23;100.00;98122.53;6247121;22;20020;-84
2021/11/26 02:00:43;;;;;;;54.88;22.52;;;;;;;0.28;100.00;98101.56;6247577;22;20432;-84
2021/11/26 02:03:11;;;;;;;49.03;21.45;;;;;;;0.27;100.00;98105.19;6247319;22;20475;-84
2021/11/26 02:05:39;;;;;;;54.20;21.50;;;;;;;0.27;100.00;98099.84;6246990;22;20506;-84
2021/11/26 02:08:09;;;;;;;49.72;22.48;;;;;;;0.07;100.00;98088.38;6247070;22;20079;-84
2021/11/26 02:10:36;;;;;;;58.03;23.85;;;;;;;0.23;100.00;98110.00;6247646;22;20036;-84
2021/11/26 02:13:05;;;;;;;51.00;22.75;;;;;;;0.09;100.00;98089.06;6247477;22;20099;-84
2021/11/26 02:15:39;;;;;;;51.22;23.15;;;;;;;0.19;100.00;98107.78;6247153;22;20331;-84
2021/11/26 02:18:07;;;;;;;56.83;23.75;;;;;;;0.19;100.00;98097.91;6246759;22;20051;-84
2021/11/26 02:20:36;;;;;;;58.50;24.50;;;;;;;0.20;100.00;98088.06;6246564;22;20459;-84
2021/11/26 02:23:03;;;;;;;46.47;22.60;;;;;;;0.18;100.00;98080.19;6247280;22;20036;-84
2021/11/26 02:25:31;;;;;;;58.95;25.48;;;;;;;0.30;100.00;98089.72;6246610;22;20019;-84
2021/11/26 02:28:03;;;;;;;53.40;22.88;;;;;;;0.27;100.00;98099.84;6247028;22;20027;-84
2021/11/26 02:30:32;;;;;;;54.83;23.42;;;;;;;0.24;100.00;98078.75;6247437;22;20019;-84
2021/11/26 02:33:05;;;;;;;53.08;22.30;;;;;;;0.12;100.00;98062.06;6247124;22;20420;-84
2021/11/26 02:35:33;;;;;;;53.03;23.60;;;;;;;0.15;100.00;98065.31;6246714;22;20040;-84
2021/11/26 02:38:03;;;;;;;52.75;22.27;;;;;;;0.10;100.00;98064.88;6246689;22;20016;-84
2021/11/26 02:40:31;;;;;;;47.83;21.83;;;;;;;0.12;100.00;98072.75;6246913;22;20070;-84
2021/11/26 02:42:59;;;;;;;52.85;23.42;;;;;;;0.15;100.00;98075.13;6246982;22;20012;-84
2021/11/26 02:45:26;;;;;;;56.72;23.60;;;;;;;0.08;100.00;98064.19;6246966;22;20023;-84
2021/11/26 02:47:56;;;;;;;51.80;21.55;;;;;;;0.29;100.00;98079.19;6246970;22;20333;-84
2021/11/26 02:50:25;;;;;;;57.88;21.65;;;;;;;0.24;100.00;98076.94;6247129;22;20046;-84
2021/11/26 02:52:53;;;;;;;51.60;22.70;;;;;;;0.06;100.00;98042.13;6246594;22;20012;-84
2021/11/26 02:55:24;;;;;;;55.83;22.77;;;;;;;0.14;100.00;98065.44;6246599;22;20277;-84
2021/11/26 02:57:51;;;;;;;50.75;21.48;;;;;;;0.13;100.00;98050.38;6247087;22;20186;-84
2021/11/26 03:00:21;;;;;;;56.67;22.17;;;;;;;0.20;100.00;98067.53;6246975;22;20036;-84
2021/11/26 03:02:49;;;;;;;57.83;22.98;;;;;;;0.28;100.00;98056.94;6246797;22;20016;-84
2021/11/26 03:05:16;;;;;;;54.40;23.75;;;;;;;0.21;100.00;98052.31;6246084;22;20020;-85
2021/11/26 03:07:47;;;;;;;57.25;23.67;;;;;;;0.22;100.00;98059.38;6246276;22;20024;-85
2021/11/26 03:10:19;;;;;;;56.13;22.90;;;;;;;0.21;100.00;98061.22;6247061;22;20026;-84
2021/11/26 03:12:49;;;;;;;52.75;21.23;;;;;;;0.13;100.00;98032.50;6246788;22;20023;-84
2021/11/26 03:15:21;;;;;;;56.20;22.33;;;;;;;0.18;100.00;98024.06;6246652;22;20023;-84
2021/11/26 03:17:48;;;;;;;53.78;21.73;;;;;;;0.23;100.00;98035.16;6246407;22;20403;-84
2021/11/26 03:20:16;;;;;;;51.38;22.77;;;;;;;0.25;100.00;98025.16;6246076;22;20070;-84
2021/11/26 03:22:43;;;;;;;52.40;22.25;;;;;;;0.39;100.00;98045.22;6246922;22;20091;-84
2021/11/26 03:25:15;;;;;;;52.33;23.25;;;;;;;0.02;100.00;98023.88;6246185;22;20016;-83
2021/11/26 03:27:42;;;;;;;49.03;23.15;;;;;;;0.13;100.00;98039.69;6246836;22;20341;-84
2021/11/26 03:30:15;;;;;;;47.17;22.27;;;;;;;0.07;100.00;98016.22;6246016;22;20376;-84
2021/11/26 03:32:44;;;;;;;54.47;22.35;;;;;;;0.08;100.00;98012.59;6246666;22;20042;-84
2021/11/26 03:35:16;;;;;;;47.38;22.63;;;;;;;0.04;100.00;97992.47;6246404;22;20020;-84
2021/11/26 03:37:43;;;;;;;55.08;23.20;;;;;;;0.16;100.00;98002.81;6246469;22;20040;-84
2021/11/26 03:40:12;;;;;;;60.40;23.70;;;;;;;0.08;100.00;97980.50;6245971;22;20066;-84
2021/11/26 03:42:41;;;;;;;52.95;23.80;;;;;;;0.08;100.00;97980.50;6245983;22;20012;-84
2021/11/26 03:45:12;;;;;;;51.50;21.95;;;;;;;0.14;100.00;97982.59;6246556;22;20027;-84
2021/11/26 03:47:39;;;;;;;52.17;23.38;;;;;;;0.17;100.00;97982.28;6246207;22;20024;-84
2021/11/26 03:50:11;;;;;;;57.75;22.48;;;;;;;0.20;100.00;97978.47;6246282;22;20020;-84
2021/11/26 03:52:46;;;;;;;56.33;23.23;;;;;;;0.10;100.00;97970.50;6246395;22;20020;-85
2021/11/26 03:55:20;;;;;;;50.85;21.58;;;;;;;0.06;100.00;97967.31;6247809;22;20046;-84
2021/11/26 04:08:06;;;;;;;55.55;23.42;;;;;;;0.17;100.00;97961.75;6124058;23;20068;-84
2021/11/26 04:10:38;;;;;;;50.60;22.65;;;;;;;0.19;100.00;97940.22;6124167;23;20026;-84
2021/11/26 04:13:08;;;;;;;59.72;25.23;;;;;;;0.14;100.00;97947.84;6231935;22;20094;-84
2021/11/26 04:15:37;;;;;;;56.28;22.80;;;;;;;0.13;100.00;97944.31;6245692;22;20016;-84
2021/11/26 04:18:05;;;;;;;55.88;23.52;;;;;;;0.08;100.00;97953.78;6245957;22;20329;-84
2021/11/26 04:20:32;;;;;;;56.88;23.30;;;;;;;0.00;100.00;97943.84;6245945;23;20039;-84
2021/11/26 04:23:00;;;;;;;56.42;23.50;;;;;;;-0.01;100.00;97945.66;6245890;22;20023;-84
2021/11/26 04:25:29;;;;;;;61.67;24.20;;;;;;;-0.01;100.00;97934.13;6245682;22;20043;-84
2021/11/26 04:27:57;;;;;;;58.85;24.65;;;;;;;0.01;100.00;97925.97;6245983;22;20330;-84
2021/11/26 04:30:26;;;;;;;56.95;25.38;;;;;;;0.09;100.00;97926.06;6246548;22;20016;-84
2021/11/26 04:32:53;;;;;;;68.80;25.80;;;;;;;0.04;100.00;97931.03;6246274;22;20091;-84
2021/11/26 04:35:21;;;;;;;57.10;22.83;;;;;;;0.09;100.00;97934.94;6246011;22;20047;-84
2021/11/26 04:37:48;;;;;;;63.63;25.05;;;;;;;0.04;100.00;97945.22;6245761;22;20024;-85
2021/11/26 04:40:16;;;;;;;59.97;24.77;;;;;;;0.01;100.00;97934.81;6246054;22;20680;-85
2021/11/26 04:42:46;;;;;;;60.03;24.95;;;;;;;-0.03;100.00;97923.59;6246302;22;20016;-84
2021/11/26 04:45:15;;;;;;;59.38;25.45;;;;;;;0.05;100.00;97912.16;6245740;22;20020;-84
2021/11/26 04:47:42;;;;;;;60.80;24.08;;;;;;;-0.05;100.00;97901.50;6245920;23;20016;-84
2021/11/26 04:50:11;;;;;;;66.55;24.92;;;;;;;0.25;100.00;97917.41;6247676;22;20031;-84
2021/11/26 04:52:38;;;;;;;64.47;26.43;;;;;;;0.12;100.00;97902.56;6246982;22;20325;-85
2021/11/26 04:55:07;;;;;;;65.28;25.27;;;;;;;0.11;100.00;97918.75;6247927;22;20333;-85
2021/11/26 04:57:34;;;;;;;59.60;26.23;;;;;;;0.08;100.00;97908.34;6247527;22;20504;-85
2021/11/26 05:00:06;;;;;;;58.30;24.85;;;;;;;-0.01;100.00;97902.91;6248122;22;20012;-85
2021/11/26 05:02:33;;;;;;;66.90;25.98;;;;;;;0.03;100.00;97919.50;6248086;22;20336;-85
2021/11/26 05:05:02;;;;;;;60.58;25.15;;;;;;;0.00;100.00;97901.09;6248116;22;20095;-85
2021/11/26 05:07:30;;;;;;;58.80;23.85;;;;;;;0.00;100.00;97911.78;6247243;22;20116;-84
2021/11/26 05:09:59;;;;;;;63.95;25.42;;;;;;;0.08;100.00;97929.75;6248123;22;20042;-84
2021/11/26 05:12:31;;;;;;;57.72;25.35;;;;;;;-0.04;100.00;97907.72;6247859;22;20016;-84
2021/11/26 05:14:59;;;;;;;60.22;25.88;;;;;;;0.00;100.00;97914.44;6248054;22;20078;-84
2021/11/26 05:17:27;;;;;;;63.40;26.45;;;;;;;-0.03;100.00;97907.56;6247462;22;20024;-85
2021/11/26 05:19:54;;;;;;;64.25;25.33;;;;;;;-0.07;100.00;97906.16;6247565;22;20028;-84
2021/11/26 05:22:23;;;;;;;65.88;27.35;;;;;;;0.06;100.00;97913.84;6247523;22;20016;-85
2021/11/26 05:24:50;;;;;;;65.80;24.90;;;;;;;-0.06;100.00;97873.13;6247368;22;20016;-85
2021/11/26 05:27:17;;;;;;;72.13;29.17;;;;;;;-0.05;100.00;97869.44;6247370;22;20017;-85
2021/11/26 05:29:50;;;;;;;60.33;25.88;;;;;;;0.11;100.00;97892.03;6247251;22;20020;-84
2021/11/26 05:32:17;;;;;;;64.80;26.73;;;;;;;-0.02;100.00;97885.19;6248175;22;20488;-84
2021/11/26 05:34:45;;;;;;;60.83;25.38;;;;;;;-0.07;100.00;97878.63;6247596;22;20035;-85
2021/11/26 05:37:12;;;;;;;72.28;27.83;;;;;;;0.11;100.00;97895.53;6247476;22;20026;-84
2021/11/26 05:39:41;;;;;;;74.00;28.05;;;;;;;0.10;100.00;97904.53;6247251;22;20016;-85
2021/11/26 05:42:08;;;;;;;65.50;25.70;;;;;;;0.10;100.00;97891.16;6247260;22;20020;-85
2021/11/26 05:44:35;;;;;;;67.75;26.17;;;;;;;0.15;100.00;97901.41;6247469;22;20020;-85
2021/11/26 05:47:05;;;;;;;65.40;27.85;;;;;;;0.19;100.00;97893.94;6247743;22;20456;-85
2021/11/26 05:49:32;;;;;;;60.05;25.48;;;;;;;0.32;100.00;97897.94;6247812;22;20013;-85
2021/11/26 05:52:00;;;;;;;71.60;27.52;;;;;;;0.13;100.00;97876.66;6247231;22;20040;-85
2021/11/26 05:54:29;;;;;;;67.45;25.95;;;;;;;0.10;100.00;97876.97;6247341;22;20028;-84
2021/11/26 05:56:59;;;;;;;64.68;25.67;;;;;;;0.09;100.00;97861.91;6247184;22;20039;-84
2021/11/26 05:59:26;;;;;;;67.97;26.02;;;;;;;0.15;100.00;97872.00;6246832;22;20515;-84
2021/11/26 06:01:56;;;;;;;66.03;27.15;;;;;;;0.19;100.00;97884.09;6246528;22;20013;-84
2021/11/26 06:04:23;;;;;;;61.58;27.38;;;;;;;0.05;100.00;97877.41;6247383;22;20609;-84
2021/11/26 06:06:52;;;;;;;65.90;27.23;;;;;;;0.14;100.00;97851.63;6247475;22;20020;-85
2021/11/26 06:09:21;;;;;;;58.45;25.65;;;;;;;0.21;100.00;97846.50;6247442;22;20028;-84
2021/11/26 06:11:59;;;;;;;57.75;25.80;;;;;;;0.29;100.00;97866.16;6246051;22;20012;-84
2021/11/26 06:14:29;;;;;;;63.65;23.70;;;;;;;0.10;100.00;97863.59;6246973;22;20024;-85
2021/11/26 06:16:56;;;;;;;61.45;24.27;;;;;;;0.12;100.00;97856.25;6246841;22;20471;-84
2021/11/26 06:19:23;;;;;;;71.50;26.50;;;;;;;0.11;100.00;97849.25;6247165;22;20016;-84
2021/11/26 06:21:51;;;;;;;63.35;24.60;;;;;;;-0.01;100.00;97844.13;6246927;22;20531;-84
2021/11/26 06:24:18;;;;;;;58.63;25.45;;;;;;;0.19;100.00;97856.53;6247059;22;20016;-84
2021/11/26 06:26:47;;;;;;;55.28;24.95;;;;;;;0.31;100.00;97850.78;6246973;22;20091;-84
2021/11/26 06:29:14;;;;;;;60.33;24.80;;;;;;;0.29;100.00;97843.94;6247111;22;20016;-84
2021/11/26 06:31:41;;;;;;;59.30;24.95;;;;;;;0.10;100.00;97828.88;6246422;22;20091;-84
2021/11/26 06:34:08;;;;;;;62.00;25.27;;;;;;;0.11;100.00;97847.41;6246700;22;20020;-84
2021/11/26 06:36:38;;;;;;;63.60;26.77;;;;;;;0.31;100.00;97852.63;6247365;22;20505;-84
2021/11/26 06:39:09;;;;;;;65.80;26.17;;;;;;;0.26;100.00;97854.94;6246811;22;20441;-84
2021/11/26 06:41:37;;;;;;;65.40;26.77;;;;;;;0.26;100.00;97854.94;6247188;22;20099;-84
2021/11/26 06:44:06;;;;;;;84.43;26.55;;;;;;;0.17;100.00;97841.47;6246511;22;20012;-84
2021/11/26 06:46:33;;;;;;;60.20;25.80;;;;;;;0.20;100.00;97836.78;6246396;22;20023;-84
2021/11/26 06:49:00;;;;;;;68.78;27.70;;;;;;;0.15;100.00;97826.56;6246211;22;20016;-84
2021/11/26 06:51:27;;;;;;;65.75;24.73;;;;;;;0.29;100.00;97851.94;6246646;22;20048;-84
2021/11/26 06:53:57;;;;;;;63.83;25.33;;;;;;;0.24;100.00;97844.41;6247150;22;20023;-84
2021/11/26 06:56:24;;;;;;;61.67;25.67;;;;;;;0.23;100.00;97833.84;6247118;22;20515;-84
2021/11/26 06:58:59;;;;;;;62.67;26.02;;;;;;;0.16;100.00;97833.59;6246725;22;20440;-88
2021/11/26 07:02:01;;;;;;;59.17;24.63;;;;;;;0.11;100.00;97826.03;6247532;22;20404;-89
2021/11/26 07:04:29;;;;;;;70.55;25.83;;;;;;;0.11;100.00;97815.34;6247020;22;20020;-88
2021/11/26 07:07:02;;;;;;;75.93;27.30;;;;;;;0.22;100.00;97834.84;6247286;22;20197;-88
2021/11/26 07:09:29;;;;;;;70.38;28.50;;;;;;;0.17;100.00;97825.44;6246917;22;20022;-87
2021/11/26 07:11:56;;;;;;;73.47;26.98;;;;;;;0.12;100.00;97824.19;6246236;22;20448;-83
2021/11/26 07:14:23;;;;;;;63.85;27.20;;;;;;;0.22;100.00;97837.50;6246596;22;20039;-83
2021/11/26 07:16:51;;;;;;;60.50;26.27;;;;;;;0.15;100.00;97818.53;6246539;22;20016;-83
2021/11/26 07:19:18;;;;;;;77.25;28.88;;;;;;;0.17;100.00;97811.25;6246297;22;20024;-83
2021/11/26 07:21:45;;;;;;;67.32;27.20;;;;;;;0.14;100.00;97807.03;6246460;22;20020;-82
2021/11/26 07:24:12;;;;;;;70.55;25.55;;;;;;;0.14;100.00;97796.34;6244875;23;20048;-82
2021/11/26 07:26:39;;;;;;;66.28;26.30;;;;;;;0.08;100.00;97793.44;6246810;22;20039;-82
2021/11/26 07:29:06;;;;;;;73.10;27.23;;;;;;;0.26;100.00;97818.34;6246319;22;20464;-83
2021/11/26 07:31:33;;;;;;;73.70;27.75;;;;;;;0.19;100.00;97806.56;6246485;22;20016;-83
2021/11/26 07:34:01;;;;;;;71.70;27.73;;;;;;;0.30;100.00;97803.69;6245421;22;20024;-83
2021/11/26 07:36:29;;;;;;;70.57;29.08;;;;;;;0.26;100.00;97791.59;6244947;22;20012;-83
2021/11/26 07:38:58;;;;;;;72.05;26.92;;;;;;;0.33;100.00;97802.50;6246010;22;20024;-83
2021/11/26 07:41:25;;;;;;;62.03;25.63;;;;;;;0.17;100.00;97771.16;6246050;22;20028;-83
2021/11/26 07:43:51;;;;;;;66.65;28.15;;;;;;;0.34;100.00;97791.66;6246222;22;20343;-83
2021/11/26 07:46:18;;;;;;;72.97;27.92;;;;;;;0.30;100.00;97787.63;6246301;22;20016;-83
2021/11/26 07:48:45;;;;;;;66.90;28.45;;;;;;;0.28;100.00;97791.47;6245357;22;20020;-83
2021/11/26 07:51:14;;;;;;;67.82;25.80;;;;;;;0.21;100.00;97758.31;6245956;22;20027;-83
2021/11/26 07:53:41;;;;;;;69.28;26.90;;;;;;;0.31;100.00;97777.78;6246318;22;20019;-83
2021/11/26 07:56:08;;;;;;;72.07;26.83;;;;;;;0.27;100.00;97771.06;6245997;22;20379;-83
2021/11/26 07:58:35;;;;;;;74.45;28.00;;;;;;;0.22;100.00;97760.81;6246147;22;20076;-83
2021/11/26 08:01:02;;;;;;;65.65;24.60;;;;;;;0.25;100.00;97757.84;6247503;22;20340;-83
2021/11/26 08:03:29;;;;;;;69.72;28.67;;;;;;;0.34;100.00;97767.59;6246275;22;20026;-83
2021/11/26 08:05:57;;;;;;;66.07;26.85;;;;;;;0.22;100.00;97736.75;6248953;22;20436;-84
2021/11/26 08:08:25;;;;;;;68.47;25.58;;;;;;;0.32;100.00;97740.19;6264585;23;20024;-82
2021/11/26 08:10:52;;;;;;;69.28;27.48;;;;;;;0.32;100.00;97739.38;6265197;22;20073;-83
2021/11/26 08:13:19;;;;;;;78.47;27.83;;;;;;;0.42;100.00;97766.00;6262558;22;20012;-82
2021/11/26 08:15:46;;;;;;;61.67;25.45;;;;;;;0.35;100.00;97741.72;6255940;22;20358;-82
2021/11/26 08:18:13;;;;;;;62.67;25.48;;;;;;;0.44;100.00;97739.97;6251179;22;20028;-83
2021/11/26 08:20:40;;;;;;;69.47;26.30;;;;;;;0.50;100.00;97750.88;6247376;22;20024;-83
2021/11/26 08:23:08;;;;;;;70.57;26.48;;;;;;;0.42;100.00;97729.44;6247360;22;20012;-83
2021/11/26 08:25:37;;;;;;;69.70;25.85;;;;;;;0.43;100.00;97723.06;6248317;22;20047;-83
2021/11/26 08:28:07;;;;;;;70.57;28.67;;;;;;;0.38;100.00;97722.69;6248610;22;20020;-83
2021/11/26 08:30:34;;;;;;;72.30;26.08;;;;;;;0.37;100.00;97721.00;6248015;22;20016;-83
2021/11/26 08:33:01;;;;;;;67.22;26.73;;;;;;;0.50;100.00;97732.16;6247905;22;20360;-83
2021/11/26 08:35:28;;;;;;;63.47;27.48;;;;;;;0.46;100.00;97711.22;6248483;22;20059;-83
2021/11/26 08:37:58;;;;;;;67.63;26.73;;;;;;;0.55;100.00;97701.44;6247768;22;20023;-83
2021/11/26 08:40:25;;;;;;;67.65;27.02;;;;;;;0.58;100.00;97704.63;6248306;22;20024;-83
2021/11/26 08:42:53;;;;;;;63.17;27.27;;;;;;;0.53;100.00;97688.22;6248003;22;20042;-83
2021/11/26 08:45:21;;;;;;;68.57;25.38;;;;;;;0.56;100.00;97682.56;6247856;22;20038;-83
2021/11/26 08:47:48;;;;;;;70.50;27.58;;;;;;;0.68;100.00;97691.97;6247044;22;20468;-83
2021/11/26 08:50:17;;;;;;;68.53;26.73;;;;;;;0.57;100.00;97689.56;6247525;22;20074;-83
2021/11/26 08:52:46;;;;;;;61.95;26.27;;;;;;;0.73;100.00;97704.03;6248792;22;20020;-83
2021/11/26 08:55:16;;;;;;;65.28;25.42;;;;;;;0.82;100.00;97703.91;6247851;22;20012;-82
2021/11/26 08:57:49;;;;;;;;;;;;;;;0.85;100.00;97700.09;6249179;22;20590;-83
2021/11/26 09:00:19;;;;;;;57.97;22.80;;;;;;;0.66;100.00;97680.59;6248249;23;19922;-83
2021/11/26 09:02:47;;;;;;;70.82;25.25;;;;;;;0.61;100.00;97687.41;6247967;22;20020;-83
2021/11/26 09:05:15;;;;;;;65.40;27.15;;;;;;;0.62;100.00;97678.41;6247286;22;20016;-83
2021/11/26 09:07:44;;;;;;;66.00;25.25;;;;;;;0.80;100.00;97700.56;6247908;22;20441;-83
2021/11/26 09:10:11;;;;;;;65.85;26.38;;;;;;;0.86;100.00;97688.41;6247752;22;20103;-82
2021/11/26 09:12:38;;;;;;;60.40;25.48;;;;;;;0.89;100.00;97685.41;6247467;22;20016;-82
2021/11/26 09:15:07;;;;;;;61.97;24.77;;;;;;;0.90;100.00;97673.69;6247462;22;20074;-82
2021/11/26 09:17:36;;;;;;;63.00;25.27;;;;;;;0.96;100.00;97682.91;6247701;22;20337;-82
2021/11/26 09:20:03;;;;;;;62.72;25.95;;;;;;;1.04;100.00;97667.75;6247349;22;20027;-83
2021/11/26 09:22:30;;;;;;;66.18;25.10;;;;;;;1.10;100.00;97676.97;6247413;22;20023;-83
2021/11/26 09:24:58;;;;;;;69.53;25.85;;;;;;;1.11;100.00;97688.50;6247382;22;20048;-83
2021/11/26 09:27:25;;;;;;;64.10;25.65;;;;;;;0.98;100.00;97672.88;6247888;22;20023;-83
2021/11/26 09:29:52;;;;;;;65.35;25.70;;;;;;;1.00;100.00;97671.72;6247300;22;20031;-83
2021/11/26 09:32:19;;;;;;;69.38;25.52;;;;;;;1.07;100.00;97677.28;6247328;22;20016;-83
2021/11/26 09:34:48;;;;;;;63.00;25.77;;;;;;;0.99;100.00;97667.38;6247812;22;20027;-82
2021/11/26 09:37:15;;;;;;;66.22;23.45;;;;;;;1.11;100.00;97675.13;6247597;22;20024;-83
2021/11/26 09:39:42;;;;;;;67.55;24.20;;;;;;;1.17;100.00;97674.47;6246680;22;20020;-82
2021/11/26 09:42:32;;;;;;;63.55;25.65;;;;;;;1.21;100.00;97679.34;6247817;22;20024;-83
2021/11/26 09:45:00;;;;;;;61.90;24.77;;;;;;;1.20;100.00;97669.63;6247070;22;20086;-83
2021/11/26 09:47:28;;;;;;;55.28;24.38;;;;;;;1.15;100.00;97658.56;6246710;22;20023;-83
2021/11/26 09:49:56;;;;;;;65.10;25.88;;;;;;;1.18;100.00;97646.72;6247958;22;20043;-83
2021/11/26 09:52:23;;;;;;;71.15;26.70;;;;;;;1.28;100.00;97665.31;6247560;22;20016;-83
2021/11/26 09:54:50;;;;;;;62.25;25.73;;;;;;;1.38;100.00;97672.19;6247843;22;20031;-83
2021/11/26 09:57:17;;;;;;;69.53;27.15;;;;;;;1.19;100.00;97640.34;6247112;22;20401;-83
2021/11/26 09:59:45;;;;;;;54.97;23.40;;;;;;;1.23;100.00;97625.63;6246828;22;20027;-83
2021/11/26 10:02:14;;;;;;;68.90;26.15;;;;;;;1.30;100.00;97626.66;6247081;22;20024;-83
2021/11/26 10:04:41;;;;;;;67.05;25.83;;;;;;;1.34;100.00;97644.09;6247042;22;20013;-83
2021/11/26 10:07:10;;;;;;;66.35;26.30;;;;;;;1.40;100.00;97645.25;6247396;22;20391;-83
2021/11/26 10:09:38;;;;;;;68.72;23.92;;;;;;;1.23;100.00;97613.09;6247033;22;20038;-83
2021/11/26 10:12:09;;;;;;;70.85;26.95;;;;;;;1.25;100.00;97620.97;6246730;22;20511;-83
2021/11/26 10:14:42;;;;;;;60.83;23.77;;;;;;;1.42;100.00;97613.81;6246718;22;20054;-82
2021/11/26 10:17:13;;;;;;;66.70;24.52;;;;;;;1.34;100.00;97597.72;6247358;23;20038;-83
2021/11/26 10:19:40;;;;;;;;;;;;;;;1.55;100.00;97605.25;6247377;22;20095;-83
2021/11/26 10:22:18;;;;;;;62.63;23.50;;;;;;;1.50;100.00;97591.53;6246801;23;19923;-83
2021/11/26 10:24:57;;;;;;;68.90;25.80;;;;;;;1.58;100.00;97594.22;6247046;22;20094;-83
2021/11/26 10:27:37;;;;;;;60.08;25.45;;;;;;;1.57;100.00;97587.22;6246716;22;20451;-83
2021/11/26 10:30:14;;;;;;;54.17;24.33;;;;;;;1.67;100.00;97582.53;6247273;22;20039;-83
2021/11/26 10:32:54;;;;;;;54.92;23.33;;;;;;;1.74;100.00;97588.88;6246714;22;20035;-83
2021/11/26 10:35:21;;;;;;;67.85;24.60;;;;;;;1.85;100.00;97586.88;6247333;22;20016;-82
2021/11/26 10:38:04;;;;;;;61.80;25.00;;;;;;;1.75;100.00;97555.72;6246075;22;20016;-83
2021/11/26 10:40:33;;;;;;;68.13;25.23;;;;;;;1.80;100.00;97562.44;6247535;22;20024;-82
2021/11/26 10:43:02;;;;;;;67.15;24.50;;;;;;;1.97;100.00;97572.09;6246570;22;20027;-83
2021/11/26 10:45:43;;;;;;;58.78;23.83;;;;;;;1.85;100.00;97544.84;6246222;22;20020;-83
2021/11/26 10:48:45;;;;;;;63.38;23.30;;;;;;;1.68;100.00;97549.34;6245400;22;20062;-83
2021/11/26 10:51:31;;;;;;;62.47;24.67;;;;;;;1.54;100.00;97526.75;6246701;22;20016;-83
2021/11/26 10:59:36;;;;;;;63.65;24.63;;;;;;;1.65;100.00;97524.75;6215481;22;20079;-82
2021/11/26 11:02:03;;;;;;;64.82;25.60;;;;;;;1.65;100.00;97522.91;6246730;22;20024;-83
2021/11/26 11:04:31;;;;;;;63.78;26.67;;;;;;;1.71;100.00;97529.44;6246678;22;20024;-82
2021/11/26 11:07:01;;;;;;;63.97;23.63;;;;;;;1.59;100.00;97507.50;6247185;22;20024;-83
2021/11/26 11:09:39;;;;;;;67.32;24.75;;;;;;;1.53;100.00;97506.34;6246534;22;20356;-82
2021/11/26 11:12:06;;;;;;;58.08;24.23;;;;;;;1.66;100.00;97519.22;6247037;22;20023;-83
2021/11/26 11:14:34;;;;;;;57.28;23.95;;;;;;;1.63;100.00;97516.88;6246614;22;20019;-82
2021/11/26 11:17:01;;;;;;;68.75;26.60;;;;;;;1.53;100.00;97494.78;6246628;22;20020;-82
2021/11/26 11:19:29;;;;;;;65.00;24.08;;;;;;;1.53;100.00;97497.47;6246343;22;20039;-82
2021/11/26 11:21:58;;;;;;;68.65;24.90;;;;;;;1.55;100.00;97500.81;6246082;22;20046;-82
2021/11/26 11:24:25;;;;;;;66.57;25.40;;;;;;;1.60;100.00;97498.47;6245732;22;20020;-82
2021/11/26 11:26:56;;;;;;;68.13;26.58;;;;;;;1.44;100.00;97479.75;6246195;22;20024;-82
2021/11/26 11:29:25;;;;;;;67.13;25.00;;;;;;;1.45;100.00;97486.78;6246136;22;20031;-82
2021/11/26 11:31:55;;;;;;;66.80;25.50;;;;;;;1.41;100.00;97478.22;6246228;22;20024;-81
2021/11/26 11:34:24;;;;;;;65.82;26.58;;;;;;;1.38;100.00;97471.34;6245879;22;20024;-81
2021/11/26 11:36:54;;;;;;;70.75;26.60;;;;;;;1.34;100.00;97466.50;6246246;22;20091;-81
2021/11/26 11:39:21;;;;;;;63.65;25.60;;;;;;;1.33;100.00;97472.88;6245728;22;20440;-81
2021/11/26 11:41:52;;;;;;;72.53;25.83;;;;;;;1.45;100.00;97478.75;6245856;22;20028;-81
2021/11/26 11:44:27;;;;;;;65.72;25.88;;;;;;;1.48;100.00;97463.16;6246309;22;20020;-81
2021/11/26 11:46:54;;;;;;;64.45;25.65;;;;;;;1.51;100.00;97462.00;6246188;22;20020;-81
2021/11/26 11:49:25;;;;;;;64.45;25.38;;;;;;;1.56;100.00;97441.72;6245465;22;20352;-81
2021/11/26 11:51:56;;;;;;;69.75;25.70;;;;;;;1.57;100.00;97430.00;6246010;22;20032;-81
2021/11/26 11:54:23;;;;;;;64.15;24.85;;;;;;;1.62;100.00;97450.91;6245892;22;20047;-81
2021/11/26 11:56:54;;;;;;;75.68;26.73;;;;;;;1.65;100.00;97425.63;6245204;22;20395;-81